Idaho Falls Regional Airport
KIDA : now visible

Airfield :











YOU CAN JOIN US ON...

 
LOGIN :

Register | Disclaimer

   EN    FR    IT 

 









Legend :    VFR   Marginal VFR   IFR   Intensive IFR   Very Intensive IFR
Visi :
Ceiling :
>= 8 km
>= 3000ft
5 to 8 km
1000 to 3000 ft
1500m to 5 km
500 to 1000 ft
800 to 1500m
200 to 500 ft
< 800m
< 200 ft
Symbols :   Thunderstorms  Fog  Heavy snow  Heavy precipitations  Wind > 20 kt






- Airport Elevation : 4744 ft
- IATA code : IDA


KIDA - Idaho Falls Regional

CURRENT METAR :
  • 100653Z AUTO 23011KT 10SM CLR 07/03 A3003 RMK AO2 SLP150 T00720028 402000000

EXPIRED METARs :
  • 100553Z AUTO 22010KT 10SM CLR 08/03 A3002 RMK AO2 SLP147 T00780028 10194 20078 51021
  • 100453Z AUTO 25014KT 10SM CLR 10/03 A3000 RMK AO2 SLP144 T01000028

TAF KIDA
Valid from the 10 at 06:00 until the 11 at 06:00 UTC


100520Z 1006/1106 20012KT P6SM SKC
FM101800 23014KT P6SM FEW060 SCT150
FM110200 VRB06KT P6SM SCT030 BKN060



MET'MAP, your aeronautical weather chart ! - Copyright ORBIFLY December 2007 - Disclaimer

ORBIFLY MET'MAP TEAM :

Programming & Development : Alexandra Zaïnal
Concept & original design : Baudouin d'Aumeries
Assistance for programming : Marc-Olivier Méhu
Technical & hardware support : Manuel Goepfert

Contact : metmap@orbifly.com




SOURCES & CREDITS :

   NOAA       Earth
Advisory